sensor_id;sensor_type;location;lat;lon;timestamp;pressure;altitude;pressure_sealevel;temperature;humidity
80566;BME280;69915;54.862;10.730;2024-01-10T00:01:35;103465.91;;;0.94;100.00
80566;BME280;69915;54.862;10.730;2024-01-10T00:04:01;103470.09;;;0.89;100.00
80566;BME280;69915;54.862;10.730;2024-01-10T00:06:27;103470.09;;;0.89;100.00
80566;BME280;69915;54.862;10.730;2024-01-10T00:08:52;103457.84;;;0.94;100.00
80566;BME280;69915;54.862;10.730;2024-01-10T00:11:18;103453.09;;;0.88;100.00
80566;BME280;69915;54.862;10.730;2024-01-10T00:13:44;103449.59;;;0.96;100.00
80566;BME280;69915;54.862;10.730;2024-01-10T00:16:12;103461.22;;;0.96;100.00
80566;BME280;69915;54.862;10.730;2024-01-10T00:18:38;103449.59;;;0.96;100.00
80566;BME280;69915;54.862;10.730;2024-01-10T00:21:05;103447.28;;;1.09;100.00
80566;BME280;69915;54.862;10.730;2024-01-10T00:23:31;103446.22;;;0.94;100.00
80566;BME280;69915;54.862;10.730;2024-01-10T00:25:57;103449.59;;;0.96;100.00
80566;BME280;69915;54.862;10.730;2024-01-10T00:28:22;103445.91;;;0.97;100.00
80566;BME280;69915;54.862;10.730;2024-01-10T00:30:48;103444.53;;;0.93;100.00
80566;BME280;69915;54.862;10.730;2024-01-10T00:33:14;103449.38;;;0.89;100.00
80566;BME280;69915;54.862;10.730;2024-01-10T00:35:39;103452.63;;;1.01;100.00
80566;BME280;69915;54.862;10.730;2024-01-10T00:38:05;103447.53;;;0.90;100.00
80566;BME280;69915;54.862;10.730;2024-01-10T00:40:31;103442.69;;;1.01;100.00
80566;BME280;69915;54.862;10.730;2024-01-10T00:42:56;103444.19;;;0.96;100.00
80566;BME280;69915;54.862;10.730;2024-01-10T00:45:22;103443.88;;;0.99;100.00
80566;BME280;69915;54.862;10.730;2024-01-10T00:47:50;103434.41;;;0.87;100.00
80566;BME280;69915;54.862;10.730;2024-01-10T00:50:16;103432.38;;;0.89;100.00
80566;BME280;69915;54.862;10.730;2024-01-10T00:52:44;103433.03;;;0.83;100.00
80566;BME280;69915;54.862;10.730;2024-01-10T00:55:09;103436.75;;;0.82;100.00
80566;BME280;69915;54.862;10.730;2024-01-10T00:57:35;103431.91;;;1.01;100.00
80566;BME280;69915;54.862;10.730;2024-01-10T01:00:00;103437.81;;;0.97;100.00
80566;BME280;69915;54.862;10.730;2024-01-10T01:02:27;103435.78;;;0.91;100.00
80566;BME280;69915;54.862;10.730;2024-01-10T01:04:52;103443.72;;;1.00;100.00
80566;BME280;69915;54.862;10.730;2024-01-10T01:07:18;103438.84;;;1.04;100.00
80566;BME280;69915;54.862;10.730;2024-01-10T01:09:43;103441.16;;;0.99;100.00
80566;BME280;69915;54.862;10.730;2024-01-10T01:12:09;103442.69;;;1.01;100.00
80566;BME280;69915;54.862;10.730;2024-01-10T01:14:34;103446.94;;;1.04;100.00
80566;BME280;69915;54.862;10.730;2024-01-10T01:17:00;103442.69;;;1.01;100.00
80566;BME280;69915;54.862;10.730;2024-01-10T01:19:25;103435.78;;;0.99;100.00
80566;BME280;69915;54.862;10.730;2024-01-10T01:21:51;103436.50;;;1.09;100.00
80566;BME280;69915;54.862;10.730;2024-01-10T01:24:16;103432.47;;;1.13;100.00
80566;BME280;69915;54.862;10.730;2024-01-10T01:26:42;103419.81;;;1.14;100.00
80566;BME280;69915;54.862;10.730;2024-01-10T01:29:07;103441.38;;;1.05;99.95
80566;BME280;69915;54.862;10.730;2024-01-10T01:31:34;103439.34;;;1.07;100.00
80566;BME280;69915;54.862;10.730;2024-01-10T01:33:59;103435.31;;;1.12;100.00
80566;BME280;69915;54.862;10.730;2024-01-10T01:36:25;103432.28;;;1.06;100.00
80566;BME280;69915;54.862;10.730;2024-01-10T01:38:50;103430.94;;;1.10;100.00
80566;BME280;69915;54.862;10.730;2024-01-10T01:41:16;103438.69;;;1.14;100.00
80566;BME280;69915;54.862;10.730;2024-01-10T01:43:43;103437.16;;;1.11;100.00
80566;BME280;69915;54.862;10.730;2024-01-10T01:46:08;103433.84;;;1.25;100.00
80566;BME280;69915;54.862;10.730;2024-01-10T01:48:34;103438.06;;;1.28;100.00
80566;BME280;69915;54.862;10.730;2024-01-10T01:51:04;103432.47;;;1.21;100.00
80566;BME280;69915;54.862;10.730;2024-01-10T01:53:30;103427.09;;;1.29;100.00
80566;BME280;69915;54.862;10.730;2024-01-10T01:55:57;103429.47;;;1.32;100.00
80566;BME280;69915;54.862;10.730;2024-01-10T01:58:25;103431.47;;;1.22;99.96
80566;BME280;69915;54.862;10.730;2024-01-10T02:00:51;103434.34;;;1.45;100.00
80566;BME280;69915;54.862;10.730;2024-01-10T02:03:17;103427.13;;;1.37;99.99
80566;BME280;69915;54.862;10.730;2024-01-10T02:05:42;103429.44;;;1.16;100.00
80566;BME280;69915;54.862;10.730;2024-01-10T02:08:08;103433.50;;;1.28;100.00
80566;BME280;69915;54.862;10.730;2024-01-10T02:10:34;103420.19;;;1.35;100.00
80566;BME280;69915;54.862;10.730;2024-01-10T02:13:01;103430.81;;;1.36;100.00
80566;BME280;69915;54.862;10.730;2024-01-10T02:15:26;103419.34;;;1.26;100.00
80566;BME280;69915;54.862;10.730;2024-01-10T02:17:52;103422.88;;;1.35;100.00
80566;BME280;69915;54.862;10.730;2024-01-10T02:20:18;103419.38;;;1.42;100.00
80566;BME280;69915;54.862;10.730;2024-01-10T02:22:44;103416.69;;;1.34;100.00
80566;BME280;69915;54.862;10.730;2024-01-10T02:25:10;103420.19;;;1.35;99.93
80566;BME280;69915;54.862;10.730;2024-01-10T02:27:37;103417.16;;;1.38;100.00
80566;BME280;69915;54.862;10.730;2024-01-10T02:30:04;103420.22;;;1.43;100.00
80566;BME280;69915;54.862;10.730;2024-01-10T02:32:30;103432.19;;;1.40;100.00
80566;BME280;69915;54.862;10.730;2024-01-10T02:34:57;103422.72;;;1.36;100.00
80566;BME280;69915;54.862;10.730;2024-01-10T02:37:22;103422.41;;;1.31;100.00
80566;BME280;69915;54.862;10.730;2024-01-10T02:39:48;103412.28;;;1.25;100.00
80566;BME280;69915;54.862;10.730;2024-01-10T02:42:13;103428.28;;;1.35;100.00
80566;BME280;69915;54.862;10.730;2024-01-10T02:44:39;103426.28;;;1.37;100.00
80566;BME280;69915;54.862;10.730;2024-01-10T02:47:05;103429.63;;;1.39;100.00
80566;BME280;69915;54.862;10.730;2024-01-10T02:49:32;103430.16;;;1.42;100.00
80566;BME280;69915;54.862;10.730;2024-01-10T02:51:58;103428.47;;;1.41;100.00
80566;BME280;69915;54.862;10.730;2024-01-10T02:54:24;103428.13;;;1.36;100.00
80566;BME280;69915;54.862;10.730;2024-01-10T02:56:50;103428.13;;;1.44;100.00
80566;BME280;69915;54.862;10.730;2024-01-10T02:59:15;103432.00;;;1.42;100.00
80566;BME280;69915;54.862;10.730;2024-01-10T03:01:41;103426.28;;;1.37;100.00
80566;BME280;69915;54.862;10.730;2024-01-10T03:04:07;103427.28;;;1.36;100.00
80566;BME280;69915;54.862;10.730;2024-01-10T03:06:32;103435.03;;;1.39;100.00
80566;BME280;69915;54.862;10.730;2024-01-10T03:08:58;103427.13;;;1.37;100.00
80566;BME280;69915;54.862;10.730;2024-01-10T03:11:23;103432.84;;;1.34;100.00
80566;BME280;69915;54.862;10.730;2024-01-10T03:13:51;103435.34;;;1.44;100.00
80566;BME280;69915;54.862;10.730;2024-01-10T03:16:17;103426.78;;;1.48;100.00
80566;BME280;69915;54.862;10.730;2024-01-10T03:18:42;103427.13;;;1.37;100.00
80566;BME280;69915;54.862;10.730;2024-01-10T03:21:08;103424.75;;;1.34;100.00
80566;BME280;69915;54.862;10.730;2024-01-10T03:23:43;103424.56;;;1.44;100.00
80566;BME280;69915;54.862;10.730;2024-01-10T03:26:10;103417.00;;;1.47;100.00
80566;BME280;69915;54.862;10.730;2024-01-10T03:28:36;103420.22;;;1.43;100.00
80566;BME280;69915;54.862;10.730;2024-01-10T03:31:01;103425.56;;;1.35;100.00
80566;BME280;69915;54.862;10.730;2024-01-10T03:33:27;103427.09;;;1.29;100.00
80566;BME280;69915;54.862;10.730;2024-01-10T03:35:52;103426.75;;;1.32;100.00
80566;BME280;69915;54.862;10.730;2024-01-10T03:38:18;103420.03;;;1.36;100.00
80566;BME280;69915;54.862;10.730;2024-01-10T03:40:43;103418.69;;;1.32;100.00
80566;BME280;69915;54.862;10.730;2024-01-10T03:43:09;103424.75;;;1.42;100.00
80566;BME280;69915;54.862;10.730;2024-01-10T03:45:35;103416.69;;;1.34;100.00
80566;BME280;69915;54.862;10.730;2024-01-10T03:48:00;103414.13;;;1.33;100.00
80566;BME280;69915;54.862;10.730;2024-01-10T03:50:26;103411.63;;;1.39;100.00
80566;BME280;69915;54.862;10.730;2024-01-10T03:52:51;103413.47;;;1.39;100.00
80566;BME280;69915;54.862;10.730;2024-01-10T03:55:17;103413.31;;;1.40;100.00
80566;BME280;69915;54.862;10.730;2024-01-10T03:57:43;103398.97;;;1.32;100.00
80566;BME280;69915;54.862;10.730;2024-01-10T04:00:09;103406.22;;;1.31;100.00
80566;BME280;69915;54.862;10.730;2024-01-10T04:02:38;103412.63;;;1.22;100.00
80566;BME280;69915;54.862;10.730;2024-01-10T04:05:10;103404.38;;;1.40;100.00
80566;BME280;69915;54.862;10.730;2024-01-10T04:07:39;103399.00;;;1.40;100.00
80566;BME280;69915;54.862;10.730;2024-01-10T04:10:07;103401.84;;;1.22;100.00
80566;BME280;69915;54.862;10.730;2024-01-10T04:12:38;103399.66;;;1.50;100.00
80566;BME280;69915;54.862;10.730;2024-01-10T04:15:04;103394.25;;;1.26;100.00
80566;BME280;69915;54.862;10.730;2024-01-10T04:17:30;103406.91;;;1.25;100.00
80566;BME280;69915;54.862;10.730;2024-01-10T04:19:56;103402.50;;;1.24;100.00
80566;BME280;69915;54.862;10.730;2024-01-10T04:22:23;103391.72;;;1.32;100.00
80566;BME280;69915;54.862;10.730;2024-01-10T04:24:49;103394.75;;;1.29;100.00
80566;BME280;69915;54.862;10.730;2024-01-10T04:27:15;103408.41;;;1.28;100.00
80566;BME280;69915;54.862;10.730;2024-01-10T04:29:40;103398.13;;;1.47;100.00
80566;BME280;69915;54.862;10.730;2024-01-10T04:32:06;103400.50;;;1.67;100.00
80566;BME280;69915;54.862;10.730;2024-01-10T04:34:31;103403.19;;;1.42;100.00
80566;BME280;69915;54.862;10.730;2024-01-10T04:36:57;103399.84;;;1.40;100.00
80566;BME280;69915;54.862;10.730;2024-01-10T04:39:22;103387.03;;;1.42;100.00
80566;BME280;69915;54.862;10.730;2024-01-10T04:41:48;103406.56;;;1.36;100.00
80566;BME280;69915;54.862;10.730;2024-01-10T04:44:14;103392.06;;;1.45;100.00
80566;BME280;69915;54.862;10.730;2024-01-10T04:46:39;103396.59;;;1.29;100.00
80566;BME280;69915;54.862;10.730;2024-01-10T04:49:06;103410.25;;;1.35;100.00
80566;BME280;69915;54.862;10.730;2024-01-10T04:51:32;103401.00;;;1.38;100.00
80566;BME280;69915;54.862;10.730;2024-01-10T04:53:58;103403.34;;;1.41;100.00
80566;BME280;69915;54.862;10.730;2024-01-10T04:56:23;103386.69;;;1.45;100.00
80566;BME280;69915;54.862;10.730;2024-01-10T04:58:49;103390.03;;;1.47;100.00
80566;BME280;69915;54.862;10.730;2024-01-10T05:01:14;103388.22;;;1.56;100.00
80566;BME280;69915;54.862;10.730;2024-01-10T05:03:40;103393.59;;;1.40;100.00
80566;BME280;69915;54.862;10.730;2024-01-10T05:06:05;103389.19;;;1.47;100.00
80566;BME280;69915;54.862;10.730;2024-01-10T05:08:31;103386.69;;;1.45;100.00
80566;BME280;69915;54.862;10.730;2024-01-10T05:10:57;103387.19;;;1.49;100.00
80566;BME280;69915;54.862;10.730;2024-01-10T05:13:22;103388.03;;;1.49;100.00
80566;BME280;69915;54.862;10.730;2024-01-10T05:15:48;103386.53;;;1.31;100.00
80566;BME280;69915;54.862;10.730;2024-01-10T05:18:15;103385.19;;;1.43;100.00
80566;BME280;69915;54.862;10.730;2024-01-10T05:20:41;103382.31;;;1.36;100.00
80566;BME280;69915;54.862;10.730;2024-01-10T05:23:06;103373.03;;;1.47;100.00
80566;BME280;69915;54.862;10.730;2024-01-10T05:25:32;103376.25;;;1.42;100.00
80566;BME280;69915;54.862;10.730;2024-01-10T05:27:57;103376.22;;;1.50;100.00
80566;BME280;69915;54.862;10.730;2024-01-10T05:30:23;103383.31;;;1.43;100.00
80566;BME280;69915;54.862;10.730;2024-01-10T05:32:49;103375.06;;;1.45;100.00
80566;BME280;69915;54.862;10.730;2024-01-10T05:35:15;103382.31;;;1.36;100.00
80566;BME280;69915;54.862;10.730;2024-01-10T05:37:40;103388.88;;;1.50;100.00
80566;BME280;69915;54.862;10.730;2024-01-10T05:40:06;103383.47;;;1.50;100.00
80566;BME280;69915;54.862;10.730;2024-01-10T05:42:32;103396.47;;;1.54;100.00
80566;BME280;69915;54.862;10.730;2024-01-10T05:44:59;103380.09;;;1.48;100.00
80566;BME280;69915;54.862;10.730;2024-01-10T05:47:25;103381.63;;;1.58;100.00
80566;BME280;69915;54.862;10.730;2024-01-10T05:49:51;103383.31;;;1.59;100.00
80566;BME280;69915;54.862;10.730;2024-01-10T05:52:18;103379.25;;;1.47;100.00
80566;BME280;69915;54.862;10.730;2024-01-10T05:54:44;103378.59;;;1.53;100.00
80566;BME280;69915;54.862;10.730;2024-01-10T05:57:10;103369.50;;;1.54;100.00
80566;BME280;69915;54.862;10.730;2024-01-10T05:59:36;103374.22;;;1.60;100.00
80566;BME280;69915;54.862;10.730;2024-01-10T06:02:02;103363.44;;;1.60;100.00
80566;BME280;69915;54.862;10.730;2024-01-10T06:04:28;103372.69;;;1.66;100.00
80566;BME280;69915;54.862;10.730;2024-01-10T06:06:58;103363.94;;;1.64;100.00
80566;BME280;69915;54.862;10.730;2024-01-10T06:09:23;103368.47;;;1.63;100.00
80566;BME280;69915;54.862;10.730;2024-01-10T06:11:49;103378.44;;;1.71;100.00
80566;BME280;69915;54.862;10.730;2024-01-10T06:14:15;103371.84;;;1.74;100.00
80566;BME280;69915;54.862;10.730;2024-01-10T06:16:41;103376.88;;;1.69;100.00
80566;BME280;69915;54.862;10.730;2024-01-10T06:19:06;103370.84;;;1.67;100.00
80566;BME280;69915;54.862;10.730;2024-01-10T06:21:32;103373.88;;;1.55;99.96
80566;BME280;69915;54.862;10.730;2024-01-10T06:23:57;103376.25;;;1.42;100.00
80566;BME280;69915;54.862;10.730;2024-01-10T06:26:23;103367.81;;;1.53;100.00
80566;BME280;69915;54.862;10.730;2024-01-10T06:28:48;103372.19;;;1.54;100.00
80566;BME280;69915;54.862;10.730;2024-01-10T06:31:14;103365.28;;;1.60;100.00
80566;BME280;69915;54.862;10.730;2024-01-10T06:33:39;103366.13;;;1.52;100.00
80566;BME280;69915;54.862;10.730;2024-01-10T06:36:05;103367.13;;;1.59;100.00
80566;BME280;69915;54.862;10.730;2024-01-10T06:38:31;103366.31;;;1.59;100.00
80566;BME280;69915;54.862;10.730;2024-01-10T06:40:56;103359.38;;;1.64;100.00
80566;BME280;69915;54.862;10.730;2024-01-10T06:43:22;103350.59;;;1.62;100.00
80566;BME280;69915;54.862;10.730;2024-01-10T06:45:47;103351.63;;;1.61;100.00
80566;BME280;69915;54.862;10.730;2024-01-10T06:48:13;103351.28;;;1.56;100.00
80566;BME280;69915;54.862;10.730;2024-01-10T06:50:40;103355.00;;;1.47;100.00
80566;BME280;69915;54.862;10.730;2024-01-10T06:53:05;103358.03;;;1.44;100.00
80566;BME280;69915;54.862;10.730;2024-01-10T06:55:31;103360.75;;;1.52;100.00
80566;BME280;69915;54.862;10.730;2024-01-10T06:57:56;103360.56;;;1.54;100.00
80566;BME280;69915;54.862;10.730;2024-01-10T07:00:22;103357.03;;;1.53;100.00
80566;BME280;69915;54.862;10.730;2024-01-10T07:02:49;103361.09;;;1.49;100.00
80566;BME280;69915;54.862;10.730;2024-01-10T07:05:15;103362.41;;;1.53;100.00
80566;BME280;69915;54.862;10.730;2024-01-10T07:07:41;103358.03;;;1.60;100.00
80566;BME280;69915;54.862;10.730;2024-01-10T07:10:07;103353.97;;;1.56;100.00
80566;BME280;69915;54.862;10.730;2024-01-10T07:12:35;103368.16;;;1.58;100.00
80566;BME280;69915;54.862;10.730;2024-01-10T07:15:01;103359.06;;;1.51;100.00
80566;BME280;69915;54.862;10.730;2024-01-10T07:17:30;103365.13;;;1.61;100.00
80566;BME280;69915;54.862;10.730;2024-01-10T07:19:55;103360.56;;;1.46;100.00
80566;BME280;69915;54.862;10.730;2024-01-10T07:22:22;103361.75;;;1.43;100.00
80566;BME280;69915;54.862;10.730;2024-01-10T07:24:49;103354.69;;;1.42;100.00
80566;BME280;69915;54.862;10.730;2024-01-10T07:27:14;103364.44;;;1.51;100.00
80566;BME280;69915;54.862;10.730;2024-01-10T07:29:41;103359.03;;;1.59;100.00
80566;BME280;69915;54.862;10.730;2024-01-10T07:32:07;103361.06;;;1.65;100.00
80566;BME280;69915;54.862;10.730;2024-01-10T07:34:39;103365.63;;;1.65;100.00
80566;BME280;69915;54.862;10.730;2024-01-10T07:37:05;103359.91;;;1.68;99.96
80566;BME280;69915;54.862;10.730;2024-01-10T07:39:31;103369.47;;;1.62;100.00
80566;BME280;69915;54.862;10.730;2024-01-10T07:41:56;103360.41;;;1.55;99.70
80566;BME280;69915;54.862;10.730;2024-01-10T07:44:23;103363.44;;;1.60;99.78
80566;BME280;69915;54.862;10.730;2024-01-10T07:46:49;103365.13;;;1.61;99.94
80566;BME280;69915;54.862;10.730;2024-01-10T07:49:19;103362.41;;;1.53;99.64
80566;BME280;69915;54.862;10.730;2024-01-10T07:51:47;103357.72;;;1.55;99.97
80566;BME280;69915;54.862;10.730;2024-01-10T07:54:12;103364.28;;;1.61;99.93
80566;BME280;69915;54.862;10.730;2024-01-10T07:56:38;103371.19;;;1.55;99.69
80566;BME280;69915;54.862;10.730;2024-01-10T07:59:05;103370.50;;;1.53;99.41
80566;BME280;69915;54.862;10.730;2024-01-10T08:01:30;103364.09;;;1.54;99.52
80566;BME280;69915;54.862;10.730;2024-01-10T08:03:56;103355.19;;;1.62;99.71
80566;BME280;69915;54.862;10.730;2024-01-10T08:06:21;103359.06;;;1.68;98.93
80566;BME280;69915;54.862;10.730;2024-01-10T08:08:47;103360.06;;;1.58;99.24
80566;BME280;69915;54.862;10.730;2024-01-10T08:11:12;103356.69;;;1.56;99.41
80566;BME280;69915;54.862;10.730;2024-01-10T08:13:38;103360.75;;;1.52;99.20
80566;BME280;69915;54.862;10.730;2024-01-10T08:16:04;103361.38;;;1.62;99.42
80566;BME280;69915;54.862;10.730;2024-01-10T08:18:29;103365.78;;;1.63;99.26
80566;BME280;69915;54.862;10.730;2024-01-10T08:20:55;103364.78;;;1.64;99.48
80566;BME280;69915;54.862;10.730;2024-01-10T08:23:21;103365.28;;;1.68;99.25
80566;BME280;69915;54.862;10.730;2024-01-10T08:25:47;103368.47;;;1.80;99.51
80566;BME280;69915;54.862;10.730;2024-01-10T08:28:12;103362.44;;;1.61;99.02
80566;BME280;69915;54.862;10.730;2024-01-10T08:30:39;103370.69;;;1.68;99.20
80566;BME280;69915;54.862;10.730;2024-01-10T08:33:05;103369.31;;;1.48;98.80
80566;BME280;69915;54.862;10.730;2024-01-10T08:35:30;103373.22;;;1.61;99.08
80566;BME280;69915;54.862;10.730;2024-01-10T08:37:58;103370.19;;;1.48;99.19
80566;BME280;69915;54.862;10.730;2024-01-10T08:40:23;103366.78;;;1.62;99.47
80566;BME280;69915;54.862;10.730;2024-01-10T08:42:51;103367.81;;;1.70;99.54
80566;BME280;69915;54.862;10.730;2024-01-10T08:45:17;103370.31;;;1.79;99.20
80566;BME280;69915;54.862;10.730;2024-01-10T08:47:43;103364.44;;;1.68;99.38
80566;BME280;69915;54.862;10.730;2024-01-10T08:50:09;103361.56;;;1.77;99.25
80566;BME280;69915;54.862;10.730;2024-01-10T08:52:36;103363.75;;;1.57;98.88
80566;BME280;69915;54.862;10.730;2024-01-10T08:55:08;103372.53;;;1.68;99.13
80566;BME280;69915;54.862;10.730;2024-01-10T08:57:33;103361.59;;;1.61;99.14
80566;BME280;69915;54.862;10.730;2024-01-10T08:59:59;103368.31;;;1.73;99.38
80566;BME280;69915;54.862;10.730;2024-01-10T09:02:25;103368.13;;;1.83;99.28
80566;BME280;69915;54.862;10.730;2024-01-10T09:04:52;103375.03;;;1.69;99.23
80566;BME280;69915;54.862;10.730;2024-01-10T09:07:18;103375.53;;;1.81;98.82
80566;BME280;69915;54.862;10.730;2024-01-10T09:09:44;103370.97;;;1.81;98.45
80566;BME280;69915;54.862;10.730;2024-01-10T09:12:10;103379.59;;;1.77;98.83
80566;BME280;69915;54.862;10.730;2024-01-10T09:14:35;103378.78;;;1.68;98.73
80566;BME280;69915;54.862;10.730;2024-01-10T09:17:01;103370.00;;;1.74;98.85
80566;BME280;69915;54.862;10.730;2024-01-10T09:19:32;103373.88;;;1.80;98.65
80566;BME280;69915;54.862;10.730;2024-01-10T09:21:57;103370.63;;;1.84;98.75
80566;BME280;69915;54.862;10.730;2024-01-10T09:24:23;103369.31;;;1.80;98.79
80566;BME280;69915;54.862;10.730;2024-01-10T09:26:52;103361.84;;;1.90;98.70
80566;BME280;69915;54.862;10.730;2024-01-10T09:29:17;103368.09;;;1.91;98.69
80566;BME280;69915;54.862;10.730;2024-01-10T09:31:43;103366.75;;;1.87;98.57
80566;BME280;69915;54.862;10.730;2024-01-10T09:34:09;103373.16;;;1.78;98.60
80566;BME280;69915;54.862;10.730;2024-01-10T09:36:34;103377.41;;;1.72;99.07
80566;BME280;69915;54.862;10.730;2024-01-10T09:39:00;103378.06;;;1.82;98.93
80566;BME280;69915;54.862;10.730;2024-01-10T09:41:28;103382.63;;;1.82;98.81
80566;BME280;69915;54.862;10.730;2024-01-10T09:43:55;103383.66;;;1.64;99.23
80566;BME280;69915;54.862;10.730;2024-01-10T09:46:21;103375.88;;;1.78;99.51
80566;BME280;69915;54.862;10.730;2024-01-10T09:48:47;103369.94;;;1.90;99.19
80566;BME280;69915;54.862;10.730;2024-01-10T09:51:12;103370.97;;;1.97;98.83
80566;BME280;69915;54.862;10.730;2024-01-10T09:53:42;103368.44;;;1.88;98.29
80566;BME280;69915;54.862;10.730;2024-01-10T09:56:09;103369.44;;;1.87;98.62
80566;BME280;69915;54.862;10.730;2024-01-10T09:58:35;103372.16;;;1.79;98.63
80566;BME280;69915;54.862;10.730;2024-01-10T10:01:06;103379.78;;;1.67;98.78
80566;BME280;69915;54.862;10.730;2024-01-10T10:03:36;103380.91;;;1.97;98.35
80566;BME280;69915;54.862;10.730;2024-01-10T10:06:03;103374.22;;;1.77;98.82
80566;BME280;69915;54.862;10.730;2024-01-10T10:08:29;103374.50;;;1.98;98.61
80566;BME280;69915;54.862;10.730;2024-01-10T10:10:55;103377.19;;;2.06;98.82
80566;BME280;69915;54.862;10.730;2024-01-10T10:13:28;103370.66;;;1.92;98.43
80566;BME280;69915;54.862;10.730;2024-01-10T10:16:01;103372.69;;;1.74;98.62
80566;BME280;69915;54.862;10.730;2024-01-10T10:18:30;103373.69;;;1.89;98.49
80566;BME280;69915;54.862;10.730;2024-01-10T10:21:08;103367.38;;;2.05;98.57
80566;BME280;69915;54.862;10.730;2024-01-10T10:23:41;103370.63;;;2.00;98.25
80566;BME280;69915;54.862;10.730;2024-01-10T10:26:14;103366.41;;;1.98;98.30
80566;BME280;69915;54.862;10.730;2024-01-10T10:28:44;103360.97;;;2.14;98.13
80566;BME280;69915;54.862;10.730;2024-01-10T10:31:10;103354.41;;;2.08;97.82
80566;BME280;69915;54.862;10.730;2024-01-10T10:33:37;103358.63;;;2.03;98.08
80566;BME280;69915;54.862;10.730;2024-01-10T10:36:04;103363.56;;;1.91;97.68
80566;BME280;69915;54.862;10.730;2024-01-10T10:38:30;103361.31;;;2.11;97.82
80566;BME280;69915;54.862;10.730;2024-01-10T10:40:58;103370.78;;;1.99;97.63
80566;BME280;69915;54.862;10.730;2024-01-10T10:43:26;103351.19;;;2.13;97.47
80566;BME280;69915;54.862;10.730;2024-01-10T10:45:54;103365.50;;;2.22;97.38
80566;BME280;69915;54.862;10.730;2024-01-10T10:48:22;103364.75;;;1.81;97.06
80566;BME280;69915;54.862;10.730;2024-01-10T10:51:04;103363.25;;;1.86;97.69
80566;BME280;69915;54.862;10.730;2024-01-10T10:53:35;103362.03;;;1.89;97.70
80566;BME280;69915;54.862;10.730;2024-01-10T10:56:03;103363.72;;;1.90;98.00
80566;BME280;69915;54.862;10.730;2024-01-10T10:58:33;103368.28;;;1.81;97.77
80566;BME280;69915;54.862;10.730;2024-01-10T11:00:59;103370.81;;;1.91;97.35
80566;BME280;69915;54.862;10.730;2024-01-10T11:03:27;103376.53;;;1.88;97.59
80566;BME280;69915;54.862;10.730;2024-01-10T11:05:54;103366.13;;;1.77;97.20
80566;BME280;69915;54.862;10.730;2024-01-10T11:08:22;103364.25;;;1.85;97.22
80566;BME280;69915;54.862;10.730;2024-01-10T11:10:50;103369.44;;;1.95;97.44
80566;BME280;69915;54.862;10.730;2024-01-10T11:24:34;103348.69;;;2.03;95.86
80566;BME280;69915;54.862;10.730;2024-01-10T11:29:37;103356.59;;;2.05;95.95
80566;BME280;69915;54.862;10.730;2024-01-10T11:32:05;103346.16;;;2.02;96.09
80566;BME280;69915;54.862;10.730;2024-01-10T11:34:31;103352.88;;;2.06;95.66
80566;BME280;69915;54.862;10.730;2024-01-10T11:37:09;103355.78;;;2.04;95.72
80566;BME280;69915;54.862;10.730;2024-01-10T11:39:36;103353.56;;;2.00;95.68
80566;BME280;69915;54.862;10.730;2024-01-10T11:42:03;103351.75;;;1.92;95.67
80566;BME280;69915;54.862;10.730;2024-01-10T11:44:29;103359.97;;;1.99;95.42
80566;BME280;69915;54.862;10.730;2024-01-10T11:46:56;103358.28;;;2.06;95.74
80566;BME280;69915;54.862;10.730;2024-01-10T11:49:23;103350.53;;;2.11;95.37
80566;BME280;69915;54.862;10.730;2024-01-10T11:51:55;103357.13;;;2.00;95.68
80566;BME280;69915;54.862;10.730;2024-01-10T11:54:41;103361.34;;;2.03;95.98
80566;BME280;69915;54.862;10.730;2024-01-10T11:57:18;103359.31;;;1.97;95.57
80566;BME280;69915;54.862;10.730;2024-01-10T11:59:45;103353.69;;;2.14;95.58
80566;BME280;69915;54.862;10.730;2024-01-10T12:02:11;103353.97;;;1.89;96.14
80566;BME280;69915;54.862;10.730;2024-01-10T12:04:38;103357.50;;;1.89;96.66
80566;BME280;69915;54.862;10.730;2024-01-10T12:07:05;103355.94;;;2.11;96.17
80566;BME280;69915;54.862;10.730;2024-01-10T12:09:33;103351.16;;;2.21;96.16
80566;BME280;69915;54.862;10.730;2024-01-10T12:11:59;103345.44;;;2.16;96.38
80566;BME280;69915;54.862;10.730;2024-01-10T12:14:25;103353.56;;;2.08;95.98
80566;BME280;69915;54.862;10.730;2024-01-10T12:16:51;103350.59;;;1.79;96.44
80566;BME280;69915;54.862;10.730;2024-01-10T12:19:20;103352.63;;;1.77;96.67
80566;BME280;69915;54.862;10.730;2024-01-10T12:21:45;103351.13;;;1.74;96.75
80566;BME280;69915;54.862;10.730;2024-01-10T12:24:12;103349.75;;;1.86;96.79
80566;BME280;69915;54.862;10.730;2024-01-10T12:26:48;103352.09;;;1.89;96.45
80566;BME280;69915;54.862;10.730;2024-01-10T12:29:19;103348.72;;;1.95;96.47
80566;BME280;69915;54.862;10.730;2024-01-10T12:31:48;103331.34;;;1.98;96.34
80566;BME280;69915;54.862;10.730;2024-01-10T12:34:13;103334.03;;;1.90;96.25
80566;BME280;69915;54.862;10.730;2024-01-10T12:36:41;103330.53;;;1.81;96.40
80566;BME280;69915;54.862;10.730;2024-01-10T12:39:06;103330.38;;;1.75;96.02
80566;BME280;69915;54.862;10.730;2024-01-10T12:41:33;103321.59;;;1.81;95.69
80566;BME280;69915;54.862;10.730;2024-01-10T12:44:00;103324.56;;;2.02;96.40
80566;BME280;69915;54.862;10.730;2024-01-10T12:46:30;103328.28;;;2.01;96.16
80566;BME280;69915;54.862;10.730;2024-01-10T12:51:27;103330.72;;;1.80;96.69
80566;BME280;69915;54.862;10.730;2024-01-10T12:53:55;103320.94;;;1.62;96.36
80566;BME280;69915;54.862;10.730;2024-01-10T12:56:22;103320.09;;;1.86;96.70